• Join FlightAware (Why Join?)
  • Login
  • US Flag 
01:04PM EDT


 

Airport Tracker/Info


-or-


 

Live Flight TrackerFlight Track Log ✈ LOF3388 ✈ 06-May-2012 ✈ KIAD - KBOS

Flight Track Log - Related Links

Times and Time Zones

All times are in EDT time to prevent confusion due to time zone crossing. See the LOF3388 flight status page for this flight to view local times or setup timezone preferences in your user account.

Time Position Orientation Groundspeed Altitude Reporting Facility
EDT Latitude Longitude Course Direction KTS MPH feet Rate Location/Type
08:35PM 38.9667 -77.5167 303° West 183 211 2,000  Level Potomac TRACON
08:36PM 39.0000 -77.5833 314° West 243 280 3,600 2,220 Climbing Potomac TRACON
08:37PM 39.0500 -77.6500 346° North 255 293 6,500 2,700 Climbing Potomac TRACON
08:38PM 39.1000 -77.6667 57° Northeast 264 304 8,800 1,680 Climbing Potomac TRACON
08:39PM 39.1500 -77.5667 67° East 302 348 10,000 600 Climbing Potomac TRACON
08:40PM 39.1833 -77.4667 116° Southeast 356 410 10,000  Level Potomac TRACON
08:41PM 39.1333 -77.3333 110° East 344 396 10,000 180 Level Potomac TRACON
08:42PM 39.1000 -77.2167 90° East 344 396 10,500 960 Climbing Potomac TRACON
08:44PM 39.1000 -77.0842 84° East 362 417 12,300 1,500 Climbing Washington Center
08:45PM 39.1100 -76.9558 86° East 356 410 14,100 1,740 Climbing Washington Center
08:46PM 39.1175 -76.8303 86° East 350 403 15,900 1,500 Climbing Washington Center
08:47PM 39.1250 -76.7019 86° East 350 403 17,200 1,260 Climbing Washington Center
08:48PM 39.1325 -76.5708 85° East 356 410 18,500 1,260 Climbing Washington Center
08:49PM 39.1417 -76.4344 86° East 368 423 19,800 1,320 Climbing Washington Center
08:50PM 39.1489 -76.2928 82° East 380 437 21,200 1,380 Climbing Washington Center
08:51PM 39.1642 -76.1511 82° East 391 450 22,500 1,020 Climbing Washington Center
08:52PM 39.1794 -76.0067 74° East 396 456 23,300 1,020 Climbing Washington Center
08:53PM 39.2111 -75.8622 46° Northeast 409 471 24,600 1,200 Climbing Washington Center
08:54PM 39.2864 -75.7606 45° Northeast 379 436 25,800 1,140 Climbing Washington Center
08:55PM 39.3636 -75.6614 44° Northeast 384 442 26,900 600 Climbing Washington Center
08:56PM 39.4447 -75.5594 46° Northeast 389 448 27,000  Climbing Washington Center
08:57PM 39.5258 -75.4489 47° Northeast 405 466 27,000  Level Washington Center
09:01PM 39.8850 -74.9533 62° Northeast 457 526 27,000  Level New York Center
09:07PM 40.2564 -74.0236 41° Northeast 483 556 27,000 -120 Level New York Center
09:12PM 40.6778 -73.5428 21° North 433 498 26,200 -360 Descending Boston Center
09:13PM 40.7803 -73.4897 30° Northeast 411 473 25,100 -1,140 Descending Boston Center
09:14PM 40.8706 -73.4200 46° Northeast 384 442 24,000 -600 Descending Boston Center
09:15PM 40.9467 -73.3139 49° Northeast 376 433 24,000 -300 Level Boston Center
09:16PM 41.0203 -73.2022 49° Northeast 383 441 23,400 -540 Descending Boston Center
09:17PM 41.0939 -73.0900 48° Northeast 395 455 23,000 -240 Descending Boston Center
09:18PM 41.1675 -72.9806 52° Northeast 395 455 23,000  Level Boston Center
09:19PM 41.2389 -72.8569 63° Northeast 406 467 23,000  Level Boston Center
09:20PM 41.2997 -72.6997 63° Northeast 418 481 23,000  Level Boston Center
09:21PM 41.3478 -72.5728 65° Northeast 423 487 23,000 -120 Level Boston Center
09:22PM 41.3981 -72.4319 65° Northeast 418 481 22,800 -960 Descending Boston Center
09:23PM 41.4542 -72.2739 64° Northeast 423 487 21,100 -1,560 Descending Boston Center
09:24PM 41.5058 -72.1353 62° Northeast 418 481 19,700 -1,380 Descending Boston Center
09:25PM 41.5514 -72.0183 68° East 400 460 18,400 -1,320 Descending Boston Center
09:26PM 41.5967 -71.8711 69° East 391 450 17,100 -1,320 Descending Boston Center
09:27PM 41.6294 -71.7569 70° East 371 427 15,800 -1,320 Descending Boston Center
09:28PM 41.6658 -71.6231 68° East 357 411 14,500 -1,140 Descending Boston Center
09:29PM 41.7044 -71.4975 64° Northeast 351 404 13,600 -900 Descending Boston Center
09:30PM 41.7433 -71.3911 59° Northeast 351 404 12,700 -960 Descending Boston Center
09:31PM 41.7961 -71.2733 58° Northeast 341 392 11,700 -900 Descending Boston Center
09:32PM 41.8411 -71.1778 61° Northeast 334 384 11,000 -360 Descending Boston Center
09:33PM 41.8878 -71.0653 60° Northeast 315 362 11,000  Level Boston Center
09:34PM 41.9261 -70.9750 63° Northeast 310 357 11,000 -240 Level Boston Center
09:35PM 41.9683 -70.8653 58° Northeast 310 357 10,600 -960 Descending Boston Center
09:36PM 42.0069 -70.7806 50° Northeast 290 334 9,100 -1,320 Descending Boston Center
09:37PM 42.0536 -70.7067 38° Northeast 268 308 8,000 -780 Descending Boston Center
09:38PM 42.1092 -70.6489 32° Northeast 251 289 7,600 -1,140 Descending Boston Center
09:39PM 42.1667 -70.6000 20° North 245 282 5,900 -1,380 Descending Boston TRACON
09:40PM 42.2333 -70.5667 10° North 239 275 5,000 -480 Descending Boston TRACON
09:41PM 42.3000 -70.5500 312° West 250 288 5,000 -480 Level Boston TRACON
09:42PM 42.3333 -70.6000 315° West 246 283 4,100 -1,020 Descending Boston TRACON
09:43PM 42.3833 -70.6667 315° West 249 287 3,100 -600 Descending Boston TRACON
09:44PM 42.4333 -70.7333 300° West 247 284 3,000 -60 Descending Boston TRACON
09:45PM 42.4833 -70.8500 270° West 249 287 3,000 -300 Level Boston TRACON
09:46PM 42.4833 -70.9333 216° Southwest 204 235 2,400 -780 Descending Boston TRACON
09:47PM 42.4500 -70.9667 200° South 179 206 1,600 -780 Descending Boston TRACON
09:48PM 42.4167 -70.9833 200° South 134 154 1,100 -660 Descending Boston TRACON
09:49PM 42.3833 -71.0000 200° South 122 140 400 -660 Descending Boston TRACON